Time;durP1;ratioP1;P1;durP2;ratioP2;P2;SDS_P1;SDS_P2;PMS_P1;PMS_P2;Temp;Humidity;BMP_temperature;BMP_pressure;BME280_temperature;BME280_humidity;BME280_pressure;Samples;Min_cycle;Max_cycle;Signal;HPM_P1;HPM_P2
2020/12/23 00:01:21;;;;;;;210.13;88.65;;;11.10;99.90;;;;;;5051798;28;20488;-74
2020/12/23 00:03:47;;;;;;;214.80;87.75;;;11.10;99.90;;;;;;5050917;28;20408;-74
2020/12/23 00:06:13;;;;;;;206.77;89.95;;;11.10;99.90;;;;;;5050670;28;20040;-74
2020/12/23 00:08:39;;;;;;;202.30;88.00;;;11.10;99.90;;;;;;5051307;28;20132;-74
2020/12/23 00:11:05;;;;;;;213.23;91.15;;;11.10;99.90;;;;;;5051030;28;20097;-74
2020/12/23 00:13:31;;;;;;;200.25;86.22;;;11.20;99.90;;;;;;5051019;28;20104;-74
2020/12/23 00:15:56;;;;;;;200.85;85.75;;;11.20;99.90;;;;;;5050644;28;20037;-74
2020/12/23 00:18:23;;;;;;;198.75;86.10;;;11.20;99.90;;;;;;5050808;28;20035;-73
2020/12/23 00:20:48;;;;;;;199.68;85.88;;;11.20;99.90;;;;;;5049977;28;20087;-74
2020/12/23 00:23:14;;;;;;;204.18;85.47;;;11.20;99.90;;;;;;5050560;28;20025;-73
2020/12/23 00:25:40;;;;;;;190.88;83.97;;;11.10;99.90;;;;;;5051054;28;20013;-74
2020/12/23 00:28:05;;;;;;;197.10;86.80;;;11.10;99.90;;;;;;5051504;28;20479;-73
2020/12/23 00:30:31;;;;;;;199.60;83.68;;;11.10;99.90;;;;;;5051336;28;20025;-75
2020/12/23 00:32:57;;;;;;;203.95;86.32;;;11.20;99.90;;;;;;5051280;28;20029;-74
2020/12/23 00:35:22;;;;;;;186.48;82.00;;;11.20;99.90;;;;;;5050975;28;20104;-75
2020/12/23 00:37:48;;;;;;;192.30;84.03;;;11.20;99.90;;;;;;5051093;28;20032;-74
2020/12/23 00:40:14;;;;;;;210.88;88.45;;;11.10;99.90;;;;;;5049956;28;20056;-74
2020/12/23 00:42:39;;;;;;;190.35;82.93;;;11.10;99.90;;;;;;5051018;28;20017;-74
2020/12/23 00:45:05;;;;;;;198.82;83.78;;;11.10;99.90;;;;;;5051345;28;20036;-74
2020/12/23 00:47:31;;;;;;;197.20;85.28;;;11.00;99.90;;;;;;5049158;28;20133;-74
2020/12/23 00:49:57;;;;;;;208.80;83.93;;;11.00;99.90;;;;;;5051250;28;20468;-74
2020/12/23 00:52:22;;;;;;;199.65;85.72;;;10.90;99.90;;;;;;5050994;28;20466;-74
2020/12/23 00:54:48;;;;;;;200.25;88.07;;;10.90;99.90;;;;;;5051030;28;20018;-73
2020/12/23 00:57:14;;;;;;;188.38;83.95;;;10.90;99.90;;;;;;5051087;28;20029;-74
2020/12/23 00:59:40;;;;;;;216.52;88.97;;;10.90;99.90;;;;;;5050392;28;20021;-73
2020/12/23 01:02:06;;;;;;;202.38;83.03;;;10.90;99.90;;;;;;5050939;28;20469;-73
2020/12/23 01:04:31;;;;;;;201.75;86.53;;;10.80;99.90;;;;;;5049262;28;20079;-74
2020/12/23 01:06:57;;;;;;;204.68;87.93;;;10.80;99.90;;;;;;5050668;28;20040;-74
2020/12/23 01:09:23;;;;;;;191.20;85.30;;;10.80;99.90;;;;;;5050610;28;20024;-74
2020/12/23 01:11:49;;;;;;;210.90;85.88;;;10.80;99.90;;;;;;5050926;28;20478;-74
2020/12/23 01:14:16;;;;;;;211.77;86.85;;;10.80;99.90;;;;;;5050749;28;20096;-74
2020/12/23 01:16:42;;;;;;;219.07;90.28;;;10.90;99.90;;;;;;5050846;28;20025;-74
2020/12/23 01:19:08;;;;;;;217.07;89.80;;;10.90;99.90;;;;;;5050670;28;20028;-74
2020/12/23 01:21:33;;;;;;;217.77;89.15;;;10.80;99.90;;;;;;5050109;28;20435;-74
2020/12/23 01:23:59;;;;;;;208.35;85.80;;;10.90;99.90;;;;;;5051111;28;20434;-74
2020/12/23 01:26:24;;;;;;;214.90;89.47;;;10.80;99.90;;;;;;5052303;28;20119;-74
2020/12/23 01:28:50;;;;;;;216.15;89.22;;;10.90;99.90;;;;;;5052403;28;20385;-73
2020/12/23 01:31:16;;;;;;;213.27;90.32;;;10.90;99.90;;;;;;5054299;28;20056;-74
2020/12/23 01:33:42;;;;;;;208.32;89.60;;;10.80;99.90;;;;;;5053409;28;20024;-74
2020/12/23 01:36:08;;;;;;;209.20;88.78;;;10.80;99.90;;;;;;5054313;28;20530;-73
2020/12/23 01:38:34;;;;;;;215.00;91.53;;;10.80;99.90;;;;;;5054128;28;20029;-74
2020/12/23 01:41:01;;;;;;;222.65;90.65;;;10.80;99.90;;;;;;5053340;28;20082;-74
2020/12/23 01:43:27;;;;;;;230.50;93.47;;;10.80;99.90;;;;;;5051904;28;20558;-74
2020/12/23 01:45:53;;;;;;;229.45;90.13;;;10.80;99.90;;;;;;5054068;28;20059;-73
2020/12/23 01:48:25;;;;;;;229.88;92.47;;;10.80;99.90;;;;;;5054004;28;20040;-74
2020/12/23 01:50:51;;;;;;;;;;;10.80;99.90;;;;;;5054089;28;20031;-74
2020/12/23 01:53:17;;;;;;;242.45;93.90;;;10.70;99.90;;;;;;5053713;28;19908;-74
2020/12/23 01:55:45;;;;;;;244.55;93.75;;;10.70;99.90;;;;;;5053749;28;20021;-74
2020/12/23 01:58:11;;;;;;;244.48;94.97;;;10.60;99.90;;;;;;5053768;28;20017;-74
2020/12/23 02:00:37;;;;;;;251.95;98.82;;;10.60;99.90;;;;;;5052760;28;20017;-74
2020/12/23 02:03:07;;;;;;;247.32;97.38;;;10.50;99.90;;;;;;5053609;28;20021;-71
2020/12/23 02:05:32;;;;;;;259.63;101.20;;;10.40;99.90;;;;;;5053391;28;20025;-71
2020/12/23 02:07:59;;;;;;;265.38;99.72;;;10.40;99.90;;;;;;5053457;28;20120;-71
2020/12/23 02:10:25;;;;;;;263.92;99.43;;;10.30;99.90;;;;;;5053374;28;20028;-71
2020/12/23 02:12:52;;;;;;;255.10;99.25;;;10.30;99.90;;;;;;5053345;28;20500;-71
2020/12/23 02:15:18;;;;;;;255.07;97.32;;;10.40;99.90;;;;;;5053359;28;20053;-71
2020/12/23 02:17:43;;;;;;;250.00;92.90;;;10.40;99.90;;;;;;5052595;28;20047;-74
2020/12/23 02:20:11;;;;;;;259.33;96.00;;;10.50;99.90;;;;;;5053378;28;20028;-74
2020/12/23 02:22:43;;;;;;;254.00;96.28;;;10.40;99.90;;;;;;5052804;28;20445;-74
2020/12/23 02:25:09;;;;;;;256.50;98.10;;;10.40;99.90;;;;;;5053349;28;20059;-74
2020/12/23 02:27:36;;;;;;;260.90;96.10;;;10.30;99.90;;;;;;5053231;28;20072;-74
2020/12/23 02:30:04;;;;;;;269.27;99.13;;;10.30;99.90;;;;;;5053281;28;20017;-74
2020/12/23 02:32:30;;;;;;;263.05;96.43;;;10.30;99.90;;;;;;5053163;28;20021;-74
2020/12/23 02:34:56;;;;;;;262.02;99.80;;;10.20;99.90;;;;;;5052021;28;20021;-73
2020/12/23 02:37:22;;;;;;;256.08;99.22;;;10.30;99.90;;;;;;5053011;28;20036;-74
2020/12/23 02:39:53;;;;;;;257.15;99.38;;;10.30;99.90;;;;;;5052550;28;20045;-72
2020/12/23 02:42:22;;;;;;;256.05;98.85;;;10.30;99.90;;;;;;5052484;28;20068;-71
2020/12/23 02:44:47;;;;;;;243.52;95.55;;;10.30;99.90;;;;;;5052693;28;20052;-73
2020/12/23 02:47:16;;;;;;;252.18;96.50;;;10.30;99.90;;;;;;5052478;28;20094;-74
2020/12/23 02:49:42;;;;;;;265.80;98.50;;;10.30;99.90;;;;;;5051172;28;20135;-71
2020/12/23 02:52:09;;;;;;;250.43;95.00;;;10.30;99.90;;;;;;5052898;28;20029;-71
2020/12/23 02:54:35;;;;;;;256.10;98.20;;;10.30;99.90;;;;;;5052325;28;20536;-72
2020/12/23 02:57:02;;;;;;;241.95;93.72;;;10.30;99.90;;;;;;5052377;28;20033;-71
2020/12/23 02:59:28;;;;;;;251.93;94.72;;;10.40;99.90;;;;;;5051593;28;20438;-71
2020/12/23 03:01:54;;;;;;;239.15;93.15;;;10.40;99.90;;;;;;5049284;28;20064;-71
2020/12/23 03:04:19;;;;;;;235.35;90.63;;;10.40;99.90;;;;;;5052623;28;20421;-74
2020/12/23 03:06:45;;;;;;;241.70;92.18;;;10.40;99.90;;;;;;5052049;28;20508;-74
2020/12/23 03:09:12;;;;;;;237.35;92.40;;;10.40;99.90;;;;;;5051817;28;20096;-74
2020/12/23 03:11:39;;;;;;;233.15;89.93;;;10.40;99.90;;;;;;5052086;28;20555;-74
2020/12/23 03:14:05;;;;;;;231.40;92.35;;;10.40;99.90;;;;;;5052178;28;20017;-74
2020/12/23 03:16:32;;;;;;;245.02;95.72;;;10.40;99.90;;;;;;5052261;28;20031;-74
2020/12/23 03:18:57;;;;;;;228.05;92.70;;;10.40;99.90;;;;;;5051607;28;20055;-74
2020/12/23 03:21:23;;;;;;;226.25;89.18;;;10.40;99.90;;;;;;5052004;28;20423;-74
2020/12/23 03:23:49;;;;;;;233.23;89.57;;;10.40;99.90;;;;;;5051664;28;20028;-74
2020/12/23 03:26:15;;;;;;;243.30;93.57;;;10.40;99.90;;;;;;5051383;28;20070;-74
2020/12/23 03:28:40;;;;;;;230.88;91.38;;;10.30;99.90;;;;;;5052292;28;20112;-74
2020/12/23 03:31:07;;;;;;;241.38;92.25;;;10.20;99.90;;;;;;5052026;28;20104;-74
2020/12/23 03:33:32;;;;;;;232.63;89.88;;;10.20;99.90;;;;;;5052440;28;20120;-72
2020/12/23 03:35:59;;;;;;;237.90;89.80;;;10.20;99.90;;;;;;5051945;28;20027;-72
2020/12/23 03:38:25;;;;;;;234.88;89.82;;;10.20;99.90;;;;;;5051740;28;20477;-74
2020/12/23 03:40:51;;;;;;;237.73;89.93;;;10.30;99.90;;;;;;5050644;28;20048;-74
2020/12/23 03:43:17;;;;;;;212.00;86.80;;;10.30;99.90;;;;;;5051457;28;20067;-74
2020/12/23 03:45:42;;;;;;;227.85;86.30;;;10.30;99.90;;;;;;5051670;28;20065;-74
2020/12/23 03:48:08;;;;;;;212.30;86.30;;;10.40;99.90;;;;;;5050851;28;20041;-74
2020/12/23 03:50:34;;;;;;;224.48;86.32;;;10.40;99.90;;;;;;5050293;28;20021;-74
2020/12/23 03:53:00;;;;;;;223.40;88.10;;;10.40;99.90;;;;;;5051743;28;20025;-74
2020/12/23 03:55:26;;;;;;;216.30;86.55;;;10.50;99.90;;;;;;5051493;28;20051;-74
2020/12/23 03:57:52;;;;;;;213.07;84.28;;;10.50;99.90;;;;;;5051695;28;20110;-74
2020/12/23 04:00:17;;;;;;;225.32;84.60;;;10.40;99.90;;;;;;5051214;28;20029;-74
2020/12/23 04:02:43;;;;;;;221.40;82.75;;;10.40;99.90;;;;;;5051416;28;20021;-73
2020/12/23 04:05:09;;;;;;;212.52;83.25;;;10.40;99.90;;;;;;5051618;28;20052;-74
2020/12/23 04:07:34;;;;;;;210.20;84.60;;;10.40;99.90;;;;;;5051024;28;20041;-74
2020/12/23 04:10:01;;;;;;;208.48;82.05;;;10.40;99.90;;;;;;5051319;28;20108;-73
2020/12/23 04:12:27;;;;;;;217.48;82.43;;;10.50;99.90;;;;;;5051578;28;20021;-74
2020/12/23 04:14:52;;;;;;;217.88;85.55;;;10.50;99.90;;;;;;5051237;28;20104;-74
2020/12/23 04:17:18;;;;;;;205.20;83.28;;;10.50;99.90;;;;;;5051286;28;20021;-74
2020/12/23 04:19:44;;;;;;;216.90;83.80;;;10.50;99.90;;;;;;5051390;28;20029;-74
2020/12/23 04:22:10;;;;;;;205.35;80.63;;;10.50;99.90;;;;;;5051036;28;20027;-74
2020/12/23 04:24:36;;;;;;;212.00;83.30;;;10.40;99.90;;;;;;5051550;28;20017;-74
2020/12/23 04:27:02;;;;;;;213.55;82.03;;;10.40;99.90;;;;;;5049670;28;20112;-74
2020/12/23 04:29:27;;;;;;;198.50;78.20;;;10.50;99.90;;;;;;5051096;28;20052;-74
2020/12/23 04:31:53;;;;;;;208.20;80.15;;;10.50;99.90;;;;;;5051436;28;20074;-74
2020/12/23 04:34:19;;;;;;;214.70;81.32;;;10.50;99.90;;;;;;5051078;28;20039;-74
2020/12/23 04:36:44;;;;;;;210.48;79.85;;;10.40;99.90;;;;;;5050843;28;20064;-74
2020/12/23 04:39:10;;;;;;;216.50;80.40;;;10.50;99.90;;;;;;5050806;28;20049;-74
2020/12/23 04:41:36;;;;;;;197.18;78.50;;;10.50;99.90;;;;;;5051037;28;20021;-74
2020/12/23 04:44:05;;;;;;;210.57;80.75;;;10.50;99.90;;;;;;5051227;28;20021;-74
2020/12/23 04:46:41;;;;;;;208.43;81.15;;;10.50;99.90;;;;;;5051174;28;20501;-74
2020/12/23 04:49:08;;;;;;;201.27;78.60;;;10.50;99.90;;;;;;5049674;28;20028;-74
2020/12/23 04:51:38;;;;;;;202.20;79.90;;;10.50;99.90;;;;;;5050946;28;20508;-74
2020/12/23 04:54:06;;;;;;;204.48;78.47;;;10.40;99.90;;;;;;5049953;28;20393;-74
2020/12/23 04:56:33;;;;;;;210.80;79.75;;;10.50;99.90;;;;;;5051180;28;20504;-73
2020/12/23 04:59:00;;;;;;;218.40;80.65;;;10.50;99.90;;;;;;5051626;28;20071;-74
2020/12/23 05:01:26;;;;;;;205.65;80.38;;;10.50;99.90;;;;;;5054639;28;20098;-74
2020/12/23 05:03:53;;;;;;;218.15;82.68;;;10.50;99.90;;;;;;5054664;28;20024;-74
2020/12/23 05:06:20;;;;;;;213.70;80.82;;;10.40;99.90;;;;;;5055062;28;20121;-73
2020/12/23 05:08:46;;;;;;;214.73;81.35;;;10.40;99.90;;;;;;5054637;28;20031;-74
2020/12/23 05:11:12;;;;;;;228.75;81.40;;;10.40;99.90;;;;;;5054652;28;20022;-74
2020/12/23 05:13:39;;;;;;;211.27;78.38;;;10.30;99.90;;;;;;5054977;28;20033;-74
2020/12/23 05:16:10;;;;;;;225.23;84.65;;;10.30;99.90;;;;;;5054732;28;20059;-74
2020/12/23 05:18:40;;;;;;;215.13;82.60;;;10.30;99.90;;;;;;5054960;28;20021;-74
2020/12/23 05:21:14;;;;;;;219.10;83.20;;;10.30;99.90;;;;;;5054494;28;20017;-74
2020/12/23 05:23:48;;;;;;;209.90;78.65;;;10.30;99.90;;;;;;5054560;28;20017;-74
2020/12/23 05:26:15;;;;;;;202.18;77.40;;;10.40;99.90;;;;;;5053985;28;20013;-74
2020/12/23 05:28:43;;;;;;;216.73;80.03;;;10.40;99.90;;;;;;5054687;28;20023;-74
2020/12/23 05:31:14;;;;;;;201.98;77.72;;;10.30;99.90;;;;;;5054164;28;20108;-73
2020/12/23 05:33:42;;;;;;;227.82;84.13;;;10.30;99.90;;;;;;5054149;28;20111;-73
2020/12/23 05:36:19;;;;;;;212.25;78.60;;;10.30;99.90;;;;;;5054051;28;20040;-74
2020/12/23 05:38:45;;;;;;;208.57;79.53;;;10.40;99.90;;;;;;5054002;28;20044;-74
2020/12/23 05:41:13;;;;;;;218.60;82.00;;;10.40;99.90;;;;;;5054216;28;20075;-73
2020/12/23 05:43:40;;;;;;;209.27;78.00;;;10.40;99.90;;;;;;5053997;28;20453;-74
2020/12/23 05:46:07;;;;;;;218.13;82.15;;;10.40;99.90;;;;;;5053916;28;20079;-74
2020/12/23 05:48:35;;;;;;;218.00;81.30;;;10.40;99.90;;;;;;5053581;28;20091;-74
2020/12/23 05:51:03;;;;;;;209.73;80.57;;;10.40;99.90;;;;;;5053144;28;20036;-74
2020/12/23 05:53:33;;;;;;;214.63;80.70;;;10.40;99.90;;;;;;5053982;28;20025;-74
2020/12/23 05:56:00;;;;;;;201.05;77.88;;;10.40;99.90;;;;;;5053699;28;20023;-73
2020/12/23 05:58:28;;;;;;;213.52;80.72;;;10.40;99.90;;;;;;5053806;28;20095;-74
2020/12/23 06:00:56;;;;;;;199.40;79.07;;;10.40;99.90;;;;;;5051520;28;20041;-74
2020/12/23 06:03:43;;;;;;;207.60;82.53;;;10.40;99.90;;;;;;5052088;28;20021;-74
2020/12/23 06:06:11;;;;;;;196.32;77.97;;;10.40;99.90;;;;;;5051999;28;20092;-74
2020/12/23 06:08:39;;;;;;;191.30;75.57;;;10.40;99.90;;;;;;5053397;28;20040;-74
2020/12/23 06:11:25;;;;;;;194.60;76.47;;;10.40;99.90;;;;;;5052676;28;20044;-74
2020/12/23 06:14:02;;;;;;;194.98;76.97;;;10.40;99.90;;;;;;5053211;28;20025;-74
2020/12/23 06:16:33;;;;;;;186.02;75.13;;;10.40;99.90;;;;;;5053487;28;20100;-74
2020/12/23 06:19:00;;;;;;;180.80;71.95;;;10.50;99.90;;;;;;5053522;28;20054;-74
2020/12/23 06:21:27;;;;;;;192.00;76.82;;;10.50;99.90;;;;;;5053247;28;20099;-74
2020/12/23 06:24:06;;;;;;;179.82;72.30;;;10.50;99.90;;;;;;5053566;28;20067;-74
2020/12/23 06:26:37;;;;;;;178.57;69.93;;;10.50;99.90;;;;;;5040618;28;20033;-72
2020/12/23 06:29:08;;;;;;;194.20;72.97;;;10.50;99.90;;;;;;5053031;28;20075;-74
2020/12/23 06:31:46;;;;;;;193.85;76.30;;;10.50;99.90;;;;;;5052892;28;20047;-74
2020/12/23 06:34:29;;;;;;;194.13;74.60;;;10.40;99.90;;;;;;5052798;28;20017;-74
2020/12/23 06:36:55;;;;;;;198.85;75.82;;;10.40;99.90;;;;;;5053228;28;20056;-73
2020/12/23 06:39:41;;;;;;;183.35;73.18;;;10.50;99.90;;;;;;5052615;28;20063;-74
2020/12/23 06:42:07;;;;;;;185.75;71.80;;;10.40;99.90;;;;;;5053342;28;20056;-74
2020/12/23 06:44:41;;;;;;;191.30;72.93;;;10.40;99.90;;;;;;5052910;28;20048;-74
2020/12/23 06:47:17;;;;;;;195.60;74.32;;;10.40;99.90;;;;;;5052666;28;20504;-73
2020/12/23 06:50:00;;;;;;;174.18;74.00;;;10.40;99.90;;;;;;5052308;28;20092;-74
2020/12/23 06:52:27;;;;;;;194.52;72.72;;;10.40;99.90;;;;;;5052560;28;20410;-74
2020/12/23 06:55:02;;;;;;;178.40;71.38;;;10.40;99.90;;;;;;5051192;28;20029;-74
2020/12/23 06:57:34;;;;;;;176.32;70.95;;;10.40;99.90;;;;;;5049099;28;20025;-72
2020/12/23 07:00:21;;;;;;;171.93;65.10;;;10.40;99.90;;;;;;5041553;28;20504;-73
2020/12/23 07:02:52;;;;;;;172.60;67.70;;;10.40;99.90;;;;;;5048282;28;20032;-72
2020/12/23 07:05:23;;;;;;;173.82;68.60;;;10.40;99.90;;;;;;5051336;28;20013;-72
2020/12/23 07:07:51;;;;;;;175.10;70.82;;;10.50;99.90;;;;;;5050869;28;20033;-72
2020/12/23 07:10:19;;;;;;;184.98;70.15;;;10.50;99.90;;;;;;5039731;28;20030;-72
2020/12/23 07:12:52;;;;;;;164.25;68.95;;;10.50;99.90;;;;;;5039563;28;20025;-73
2020/12/23 07:15:22;;;;;;;184.55;71.82;;;10.50;99.90;;;;;;5046277;28;20028;-73
2020/12/23 07:17:50;;;;;;;168.93;72.07;;;10.50;99.90;;;;;;5044991;28;20040;-73
2020/12/23 07:20:18;;;;;;;181.65;73.00;;;10.50;99.90;;;;;;5050591;28;20075;-74
2020/12/23 07:22:50;;;;;;;175.88;71.38;;;10.50;99.90;;;;;;5050070;28;20060;-72
2020/12/23 07:25:26;;;;;;;175.30;70.05;;;10.50;99.90;;;;;;5050796;28;20036;-72
2020/12/23 07:27:56;;;;;;;181.23;71.25;;;10.50;99.90;;;;;;5050935;28;20041;-72
2020/12/23 07:30:23;;;;;;;176.13;69.45;;;10.40;99.90;;;;;;5046835;28;20078;-72
2020/12/23 07:33:24;;;;;;;191.50;73.25;;;10.40;99.90;;;;;;5050459;28;20044;-72
2020/12/23 07:35:55;;;;;;;160.05;66.47;;;10.40;99.90;;;;;;5035762;28;20041;-72
2020/12/23 07:38:31;;;;;;;179.13;72.93;;;10.40;99.90;;;;;;5049396;28;20028;-72
2020/12/23 07:40:57;;;;;;;165.10;72.05;;;10.40;99.90;;;;;;5047306;28;20131;-72
2020/12/23 07:43:23;;;;;;;158.77;69.00;;;10.40;99.90;;;;;;5049870;28;20029;-72
2020/12/23 07:45:49;;;;;;;161.88;70.20;;;10.40;99.90;;;;;;5039184;28;20032;-72
2020/12/23 07:48:19;;;;;;;149.30;66.72;;;10.50;99.90;;;;;;5040316;28;20076;-72
2020/12/23 07:50:53;;;;;;;158.65;67.13;;;10.50;99.90;;;;;;5042712;28;20393;-74
2020/12/23 07:53:27;;;;;;;158.80;67.22;;;10.50;99.90;;;;;;5043778;28;20021;-72
2020/12/23 07:55:57;;;;;;;162.38;68.07;;;10.50;99.90;;;;;;5043611;28;20028;-72
2020/12/23 07:58:23;;;;;;;159.38;69.28;;;10.50;99.90;;;;;;5034175;28;20017;-72
2020/12/23 08:00:48;;;;;;;169.07;68.82;;;10.50;99.90;;;;;;5042924;28;20033;-72
2020/12/23 08:03:14;;;;;;;161.35;66.25;;;10.50;99.90;;;;;;5041155;28;20040;-72
2020/12/23 08:05:41;;;;;;;158.18;66.72;;;10.50;99.90;;;;;;5036480;28;20049;-72
2020/12/23 08:08:08;;;;;;;165.55;69.40;;;10.50;99.90;;;;;;5032006;28;20558;-72
2020/12/23 08:10:35;;;;;;;168.18;68.55;;;10.50;99.90;;;;;;5034493;28;20033;-72
2020/12/23 08:13:02;;;;;;;151.25;67.25;;;10.50;99.90;;;;;;5040325;28;20025;-72
2020/12/23 08:15:28;;;;;;;160.48;67.03;;;10.50;99.90;;;;;;5035388;28;20024;-72
2020/12/23 08:18:10;;;;;;;170.57;68.35;;;10.50;99.90;;;;;;5041079;28;20385;-72
2020/12/23 08:20:36;;;;;;;179.88;69.82;;;10.50;99.90;;;;;;5049841;28;20021;-72
2020/12/23 08:23:02;;;;;;;172.30;70.25;;;10.60;99.90;;;;;;5049494;28;20032;-72
2020/12/23 08:25:30;;;;;;;160.68;67.35;;;10.60;99.90;;;;;;5050476;28;20355;-72
2020/12/23 08:27:57;;;;;;;153.27;68.22;;;10.60;99.90;;;;;;5048903;28;20029;-74
2020/12/23 08:30:32;;;;;;;161.05;67.10;;;10.60;99.90;;;;;;5045491;28;20104;-73
2020/12/23 08:33:03;;;;;;;151.10;65.72;;;10.60;99.90;;;;;;5051171;28;20481;-72
2020/12/23 08:35:31;;;;;;;147.60;67.63;;;10.60;99.90;;;;;;5054197;28;20017;-72
2020/12/23 08:37:57;;;;;;;143.38;63.78;;;10.60;99.90;;;;;;5055004;28;20096;-72
2020/12/23 08:40:23;;;;;;;151.52;66.20;;;10.60;99.90;;;;;;5054866;28;20128;-72
2020/12/23 08:43:00;;;;;;;163.75;70.68;;;10.60;99.90;;;;;;5054374;28;20524;-72
2020/12/23 08:45:30;;;;;;;159.68;68.72;;;10.60;99.90;;;;;;5053519;28;20131;-72
2020/12/23 08:47:57;;;;;;;154.43;67.07;;;10.60;99.90;;;;;;5054007;28;20043;-73
2020/12/23 08:50:27;;;;;;;161.70;70.93;;;10.60;99.90;;;;;;5052355;28;20032;-71
2020/12/23 08:52:54;;;;;;;165.30;75.45;;;10.60;99.90;;;;;;5053690;28;20033;-72
2020/12/23 08:55:23;;;;;;;159.65;73.07;;;10.60;99.90;;;;;;5053816;28;20155;-72
2020/12/23 08:58:05;;;;;;;145.07;65.95;;;10.70;99.90;;;;;;5052847;28;20488;-72
2020/12/23 09:00:32;;;;;;;156.32;69.25;;;10.70;99.90;;;;;;5050670;28;20050;-72
2020/12/23 09:02:58;;;;;;;158.80;72.75;;;10.70;99.90;;;;;;5052846;28;20025;-72
2020/12/23 09:05:31;;;;;;;165.52;73.88;;;10.70;99.90;;;;;;5054139;28;20508;-72
2020/12/23 09:08:07;;;;;;;163.82;72.68;;;10.70;99.90;;;;;;5053227;28;20039;-71
2020/12/23 09:10:34;;;;;;;153.70;68.20;;;10.70;99.90;;;;;;5050553;28;20075;-73
2020/12/23 09:13:18;;;;;;;157.00;71.50;;;10.70;99.90;;;;;;5052653;28;20029;-72
2020/12/23 09:15:52;;;;;;;158.93;71.25;;;10.70;99.90;;;;;;5052278;28;20029;-72
2020/12/23 09:18:18;;;;;;;158.30;69.10;;;10.70;99.90;;;;;;5052305;28;20025;-71
2020/12/23 09:20:43;;;;;;;155.70;67.32;;;10.70;99.90;;;;;;5051044;28;20025;-72
2020/12/23 09:23:10;;;;;;;168.88;70.95;;;10.70;99.90;;;;;;5053115;28;20029;-72
2020/12/23 09:25:37;;;;;;;154.82;69.90;;;10.70;99.90;;;;;;5052389;28;20074;-72
2020/12/23 09:28:11;;;;;;;163.38;71.45;;;10.70;99.90;;;;;;5053688;28;20040;-74
2020/12/23 09:30:51;;;;;;;156.98;67.43;;;10.70;99.90;;;;;;5053381;28;20029;-73
2020/12/23 09:33:19;;;;;;;159.02;72.75;;;10.70;99.90;;;;;;5053912;28;20021;-73
2020/12/23 09:35:47;;;;;;;171.85;75.15;;;10.70;99.90;;;;;;5051632;28;20108;-73
2020/12/23 09:38:27;;;;;;;167.48;71.05;;;10.70;99.90;;;;;;5047341;28;20024;-72
2020/12/23 09:40:55;;;;;;;169.88;72.90;;;10.70;99.90;;;;;;5047959;28;20044;-73
2020/12/23 09:43:24;;;;;;;157.45;70.78;;;10.70;99.90;;;;;;5045793;28;20515;-73
2020/12/23 09:45:54;;;;;;;154.90;70.03;;;10.80;99.90;;;;;;5049687;28;20100;-73
2020/12/23 09:48:21;;;;;;;163.60;71.15;;;10.80;99.90;;;;;;5051884;28;20033;-73
2020/12/23 09:50:48;;;;;;;149.73;68.30;;;10.70;99.90;;;;;;5046727;28;20026;-72
2020/12/23 09:53:14;;;;;;;160.60;72.63;;;10.80;99.90;;;;;;5050312;28;20388;-72
2020/12/23 09:55:41;;;;;;;171.27;74.57;;;10.70;99.90;;;;;;5052913;28;20103;-72
2020/12/23 09:58:07;;;;;;;148.70;70.68;;;10.80;99.90;;;;;;5052634;28;20107;-72
2020/12/23 10:00:32;;;;;;;169.00;71.43;;;10.80;99.90;;;;;;5048396;28;20060;-73
2020/12/23 10:02:58;;;;;;;159.23;74.22;;;10.70;99.90;;;;;;5042976;28;20108;-73
2020/12/23 10:05:23;;;;;;;159.98;70.53;;;10.70;99.90;;;;;;5051425;28;20021;-72
2020/12/23 10:07:49;;;;;;;156.77;71.57;;;10.70;99.90;;;;;;5052805;28;20498;-73
2020/12/23 10:10:15;;;;;;;166.68;74.07;;;10.80;99.90;;;;;;5052208;28;20020;-73
2020/12/23 10:12:41;;;;;;;166.48;71.50;;;10.80;99.90;;;;;;5051955;28;20342;-73
2020/12/23 10:15:07;;;;;;;160.80;71.32;;;10.80;99.90;;;;;;5052868;28;20021;-73
2020/12/23 10:17:33;;;;;;;156.68;71.63;;;10.80;99.90;;;;;;5052335;28;20025;-72
2020/12/23 10:19:59;;;;;;;158.55;70.38;;;10.80;99.90;;;;;;5052588;28;20052;-73
2020/12/23 10:22:25;;;;;;;148.93;69.57;;;10.80;99.90;;;;;;5050205;28;20064;-73
2020/12/23 10:24:51;;;;;;;152.07;68.78;;;10.80;99.90;;;;;;5052733;28;20017;-72
2020/12/23 10:27:17;;;;;;;161.23;76.70;;;10.80;99.90;;;;;;5049150;28;20033;-73
2020/12/23 10:29:43;;;;;;;154.20;71.35;;;10.90;99.90;;;;;;5049223;28;20029;-72
2020/12/23 10:32:08;;;;;;;146.30;69.22;;;10.90;99.90;;;;;;5051638;28;20059;-72
2020/12/23 10:34:34;;;;;;;145.68;69.63;;;10.90;99.90;;;;;;5051749;28;20477;-72
2020/12/23 10:36:59;;;;;;;145.77;68.35;;;10.90;99.90;;;;;;5048760;28;20017;-72
2020/12/23 10:39:25;;;;;;;156.52;71.20;;;10.90;99.90;;;;;;5051503;28;20036;-72
2020/12/23 10:41:53;;;;;;;155.35;71.80;;;10.90;99.90;;;;;;5051624;28;20033;-72
2020/12/23 10:44:20;;;;;;;151.25;71.25;;;11.00;99.90;;;;;;5052055;28;20079;-72
2020/12/23 10:46:46;;;;;;;151.65;71.75;;;11.00;99.90;;;;;;5048753;28;20033;-73
2020/12/23 10:49:12;;;;;;;155.15;72.28;;;11.00;99.90;;;;;;5051914;28;20032;-73
2020/12/23 10:51:38;;;;;;;159.43;75.60;;;11.00;99.90;;;;;;5051431;28;20025;-73
2020/12/23 10:54:04;;;;;;;155.40;73.35;;;11.10;99.90;;;;;;5044944;28;20021;-72
2020/12/23 10:56:29;;;;;;;157.75;70.82;;;11.10;99.90;;;;;;5037170;28;20388;-73
2020/12/23 10:58:55;;;;;;;163.55;74.15;;;11.10;99.90;;;;;;5036673;28;20060;-72
2020/12/23 11:01:21;;;;;;;157.80;74.47;;;11.10;99.90;;;;;;5040426;28;20117;-73
2020/12/23 11:03:47;;;;;;;153.95;73.03;;;11.10;99.90;;;;;;5042967;28;20475;-73
2020/12/23 11:06:14;;;;;;;156.23;73.88;;;11.10;99.90;;;;;;5050526;28;20507;-72
2020/12/23 11:08:41;;;;;;;158.75;75.00;;;11.10;99.90;;;;;;5052032;28;20124;-73
2020/12/23 11:11:07;;;;;;;157.40;73.32;;;11.20;99.90;;;;;;5051625;28;20028;-73
2020/12/23 11:13:33;;;;;;;154.52;74.95;;;11.10;99.90;;;;;;5036708;28;20180;-73
2020/12/23 11:15:58;;;;;;;151.65;71.03;;;11.10;99.90;;;;;;5045686;28;20021;-72
2020/12/23 11:18:24;;;;;;;160.93;74.68;;;11.20;99.90;;;;;;5051180;28;20166;-73
2020/12/23 11:20:49;;;;;;;192.00;75.63;;;11.20;99.90;;;;;;5049693;28;21688;-73
2020/12/23 11:23:26;;;;;;;171.90;78.97;;;11.20;99.90;;;;;;5050279;28;20021;-72
2020/12/23 11:25:51;;;;;;;167.85;76.85;;;11.20;99.90;;;;;;5051661;28;20036;-72
2020/12/23 11:28:17;;;;;;;166.35;75.70;;;11.20;99.90;;;;;;5051619;28;20033;-73
2020/12/23 11:30:43;;;;;;;169.05;75.88;;;11.10;99.90;;;;;;5051276;28;20021;-73
2020/12/23 11:33:09;;;;;;;166.65;75.45;;;11.00;99.90;;;;;;5048150;28;20103;-73
2020/12/23 11:35:34;;;;;;;177.57;78.50;;;11.00;99.90;;;;;;5051110;28;20025;-72
2020/12/23 11:38:00;;;;;;;171.38;77.38;;;10.90;99.90;;;;;;5051016;28;20021;-74
2020/12/23 11:40:26;;;;;;;171.32;77.68;;;11.00;99.90;;;;;;5050763;28;20064;-73
2020/12/23 11:42:51;;;;;;;173.05;78.00;;;11.00;99.90;;;;;;5050165;28;20025;-73
2020/12/23 11:45:17;;;;;;;162.40;76.15;;;11.00;99.90;;;;;;5050913;28;20040;-73
2020/12/23 11:47:43;;;;;;;177.95;74.00;;;11.00;99.90;;;;;;5051086;28;20029;-72
2020/12/23 11:50:09;;;;;;;173.13;77.45;;;11.00;99.90;;;;;;5050767;28;20043;-73
2020/12/23 11:52:35;;;;;;;181.50;80.43;;;11.00;99.90;;;;;;5050469;28;20060;-73
2020/12/23 11:55:01;;;;;;;170.27;77.10;;;10.90;99.90;;;;;;5048277;28;20068;-73
2020/12/23 11:57:26;;;;;;;170.35;77.82;;;10.90;99.90;;;;;;5048956;28;20025;-73
2020/12/23 11:59:52;;;;;;;154.35;74.70;;;10.90;99.90;;;;;;5049360;28;20041;-73
2020/12/23 12:02:18;;;;;;;168.38;75.95;;;10.90;99.90;;;;;;5050156;28;20031;-74
2020/12/23 12:04:43;;;;;;;161.50;74.75;;;10.90;99.90;;;;;;5041333;28;20025;-73
2020/12/23 12:07:09;;;;;;;166.25;74.20;;;11.00;99.90;;;;;;5037668;28;20041;-73
2020/12/23 12:09:35;;;;;;;167.43;77.35;;;11.10;99.90;;;;;;5049386;28;20072;-73
2020/12/23 12:12:00;;;;;;;167.45;73.97;;;11.10;99.90;;;;;;5042213;28;20475;-73
2020/12/23 12:14:26;;;;;;;155.52;75.38;;;11.10;99.90;;;;;;5045720;28;20055;-72
2020/12/23 12:16:52;;;;;;;158.70;72.78;;;11.10;99.90;;;;;;5046188;28;20029;-72
2020/12/23 12:19:17;;;;;;;157.00;73.45;;;11.10;99.90;;;;;;5047791;28;20032;-72
2020/12/23 12:21:43;;;;;;;158.38;74.05;;;11.20;99.90;;;;;;5048019;28;20025;-73